sensor_id;sensor_type;location;lat;lon;timestamp;pressure;altitude;pressure_sealevel;temperature;humidity
59240;BME280;45010;53.640;10.578;2023-02-01T00:00:34;100303.31;;;25.17;32.93
59240;BME280;45010;53.640;10.578;2023-02-01T00:03:34;100299.56;;;25.18;32.99
59240;BME280;45010;53.640;10.578;2023-02-01T00:06:35;100314.59;;;25.24;32.94
59240;BME280;45010;53.640;10.578;2023-02-01T00:09:35;100314.59;;;25.24;32.92
59240;BME280;45010;53.640;10.578;2023-02-01T00:12:35;100305.81;;;25.23;32.90
59240;BME280;45010;53.640;10.578;2023-02-01T00:15:36;100302.09;;;25.24;32.94
59240;BME280;45010;53.640;10.578;2023-02-01T00:18:36;100294.88;;;25.25;33.14
59240;BME280;45010;53.640;10.578;2023-02-01T00:21:36;100289.13;;;25.16;33.00
59240;BME280;45010;53.640;10.578;2023-02-01T00:24:37;100293.25;;;25.24;32.69
59240;BME280;45010;53.640;10.578;2023-02-01T00:27:37;100287.13;;;25.23;32.94
59240;BME280;45010;53.640;10.578;2023-02-01T00:30:38;100287.91;;;25.24;32.93
59240;BME280;45010;53.640;10.578;2023-02-01T00:33:38;100292.47;;;25.23;32.90
59240;BME280;45010;53.640;10.578;2023-02-01T00:36:39;100292.47;;;25.23;33.03
59240;BME280;45010;53.640;10.578;2023-02-01T00:39:39;100300.19;;;25.25;33.01
59240;BME280;45010;53.640;10.578;2023-02-01T00:42:39;100296.75;;;25.24;32.92
59240;BME280;45010;53.640;10.578;2023-02-01T00:45:40;100300.19;;;25.25;32.89
59240;BME280;45010;53.640;10.578;2023-02-01T00:48:41;100286.47;;;25.16;32.93
59240;BME280;45010;53.640;10.578;2023-02-01T00:51:41;100294.63;;;25.27;32.57
59240;BME280;45010;53.640;10.578;2023-02-01T00:54:41;100218.94;;;24.76;32.87
59240;BME280;45010;53.640;10.578;2023-02-01T00:57:42;100284.13;;;25.20;32.80
59240;BME280;45010;53.640;10.578;2023-02-01T01:00:42;100291.16;;;25.26;32.53
59240;BME280;45010;53.640;10.578;2023-02-01T01:03:45;100282.28;;;25.20;32.63
59240;BME280;45010;53.640;10.578;2023-02-01T01:06:46;100279.69;;;25.25;32.64
59240;BME280;45010;53.640;10.578;2023-02-01T01:09:47;100284.19;;;25.25;32.72
59240;BME280;45010;53.640;10.578;2023-02-01T01:12:47;100283.41;;;25.24;32.72
59240;BME280;45010;53.640;10.578;2023-02-01T01:15:47;100291.66;;;25.23;32.72
59240;BME280;45010;53.640;10.578;2023-02-01T01:18:48;100275.88;;;25.21;32.58
59240;BME280;45010;53.640;10.578;2023-02-01T01:21:48;100290.59;;;25.24;32.75
59240;BME280;45010;53.640;10.578;2023-02-01T01:24:48;100284.19;;;25.25;32.87
59240;BME280;45010;53.640;10.578;2023-02-01T01:27:49;100282.59;;;25.24;32.33
59240;BME280;45010;53.640;10.578;2023-02-01T01:30:49;100272.97;;;25.23;32.39
59240;BME280;45010;53.640;10.578;2023-02-01T01:33:55;100260.59;;;25.17;32.35
59240;BME280;45010;53.640;10.578;2023-02-01T01:36:56;100265.44;;;25.20;32.44
59240;BME280;45010;53.640;10.578;2023-02-01T01:39:56;100252.53;;;25.11;32.40
59240;BME280;45010;53.640;10.578;2023-02-01T01:42:57;100248.81;;;25.12;32.34
59240;BME280;45010;53.640;10.578;2023-02-01T01:45:58;100248.81;;;25.12;32.44
59240;BME280;45010;53.640;10.578;2023-02-01T01:49:02;100254.66;;;25.09;32.21
59240;BME280;45010;53.640;10.578;2023-02-01T01:52:05;100242.38;;;25.08;32.25
59240;BME280;45010;53.640;10.578;2023-02-01T01:55:06;100238.31;;;25.06;32.29
59240;BME280;45010;53.640;10.578;2023-02-01T01:58:13;100239.63;;;25.03;32.31
59240;BME280;45010;53.640;10.578;2023-02-01T02:01:15;100240.91;;;25.01;32.30
59240;BME280;45010;53.640;10.578;2023-02-01T02:04:16;100236.88;;;24.98;32.40
59240;BME280;45010;53.640;10.578;2023-02-01T02:07:23;100240.59;;;24.97;32.35
59240;BME280;45010;53.640;10.578;2023-02-01T02:10:25;100235.75;;;24.94;32.34
59240;BME280;45010;53.640;10.578;2023-02-01T02:13:49;100234.13;;;24.93;32.48
59240;BME280;45010;53.640;10.578;2023-02-01T02:20:39;100212.66;;;24.82;32.53
59240;BME280;45010;53.640;10.578;2023-02-01T02:34:04;100213.91;;;24.80;32.42
59240;BME280;45010;53.640;10.578;2023-02-01T02:38:02;100204.53;;;24.77;32.52
59240;BME280;45010;53.640;10.578;2023-02-01T02:40:50;100200.50;;;24.75;32.48
59240;BME280;45010;53.640;10.578;2023-02-01T02:43:56;100194.38;;;24.74;32.42
59240;BME280;45010;53.640;10.578;2023-02-01T02:47:23;100180.34;;;24.62;32.51
59240;BME280;45010;53.640;10.578;2023-02-01T02:50:42;100189.53;;;24.71;32.54
59240;BME280;45010;53.640;10.578;2023-02-01T02:54:07;100173.22;;;24.67;32.46
59240;BME280;45010;53.640;10.578;2023-02-01T02:57:46;100175.31;;;24.65;32.51
59240;BME280;45010;53.640;10.578;2023-02-01T03:01:06;100178.22;;;24.64;32.50
59240;BME280;45010;53.640;10.578;2023-02-01T03:04:25;100162.06;;;24.53;32.42
59240;BME280;45010;53.640;10.578;2023-02-01T03:10:59;100178.16;;;24.58;32.61
59240;BME280;45010;53.640;10.578;2023-02-01T03:14:02;100188.25;;;24.56;32.62
59240;BME280;45010;53.640;10.578;2023-02-01T03:17:12;100177.53;;;24.51;32.35
59240;BME280;45010;53.640;10.578;2023-02-01T03:20:14;100180.50;;;24.55;32.39
59240;BME280;45010;53.640;10.578;2023-02-01T03:23:20;100188.75;;;24.53;32.49
59240;BME280;45010;53.640;10.578;2023-02-01T03:26:22;100171.31;;;24.45;32.41
59240;BME280;45010;53.640;10.578;2023-02-01T03:29:29;100181.25;;;24.50;32.43
59240;BME280;45010;53.640;10.578;2023-02-01T03:32:31;100176.97;;;24.49;32.59
59240;BME280;45010;53.640;10.578;2023-02-01T03:36:03;100186.03;;;24.48;32.51
59240;BME280;45010;53.640;10.578;2023-02-01T03:39:49;100180.84;;;24.41;32.56
59240;BME280;45010;53.640;10.578;2023-02-01T03:42:55;100165.66;;;24.42;32.38
59240;BME280;45010;53.640;10.578;2023-02-01T03:46:00;100173.09;;;24.40;32.64
59240;BME280;45010;53.640;10.578;2023-02-01T03:49:05;100159.03;;;24.44;32.65
59240;BME280;45010;53.640;10.578;2023-02-01T03:52:10;100161.94;;;24.43;32.58
59240;BME280;45010;53.640;10.578;2023-02-01T03:55:14;100153.38;;;24.41;32.71
59240;BME280;45010;53.640;10.578;2023-02-01T03:58:19;100143.88;;;24.28;32.61
59240;BME280;45010;53.640;10.578;2023-02-01T04:01:19;100163.25;;;24.40;32.71
59240;BME280;45010;53.640;10.578;2023-02-01T04:04:20;100155.47;;;24.39;32.75
59240;BME280;45010;53.640;10.578;2023-02-01T04:07:20;100143.22;;;24.38;32.88
59240;BME280;45010;53.640;10.578;2023-02-01T04:10:21;100133.59;;;24.37;32.56
59240;BME280;45010;53.640;10.578;2023-02-01T04:13:21;100130.94;;;24.37;32.62
59240;BME280;45010;53.640;10.578;2023-02-01T04:16:21;100125.03;;;24.35;32.83
59240;BME280;45010;53.640;10.578;2023-02-01T04:19:22;100131.41;;;24.34;32.71
59240;BME280;45010;53.640;10.578;2023-02-01T04:22:22;100127.69;;;24.35;32.85
59240;BME280;45010;53.640;10.578;2023-02-01T04:25:22;100123.66;;;24.32;32.77
59240;BME280;45010;53.640;10.578;2023-02-01T04:28:23;100119.38;;;24.31;32.67
59240;BME280;45010;53.640;10.578;2023-02-01T04:31:23;100117.53;;;24.31;32.88
59240;BME280;45010;53.640;10.578;2023-02-01T04:34:27;100102.53;;;24.25;32.83
59240;BME280;45010;53.640;10.578;2023-02-01T04:37:27;100102.53;;;24.25;32.76
59240;BME280;45010;53.640;10.578;2023-02-01T04:40:28;100110.59;;;24.30;32.85
59240;BME280;45010;53.640;10.578;2023-02-01T04:43:29;100109.78;;;24.30;32.82
59240;BME280;45010;53.640;10.578;2023-02-01T04:46:29;100093.00;;;24.29;32.87
59240;BME280;45010;53.640;10.578;2023-02-01T04:49:29;100088.16;;;24.26;32.88
59240;BME280;45010;53.640;10.578;2023-02-01T04:52:30;100080.72;;;24.28;33.27
59240;BME280;45010;53.640;10.578;2023-02-01T04:55:30;100093.00;;;24.29;32.86
59240;BME280;45010;53.640;10.578;2023-02-01T04:58:30;100080.72;;;24.28;32.92
59240;BME280;45010;53.640;10.578;2023-02-01T05:01:31;100063.53;;;24.19;32.90
59240;BME280;45010;53.640;10.578;2023-02-01T05:04:31;100070.03;;;24.28;32.79
59240;BME280;45010;53.640;10.578;2023-02-01T05:07:32;100079.09;;;24.27;33.02
59240;BME280;45010;53.640;10.578;2023-02-01T05:10:32;100087.34;;;24.26;32.87
59240;BME280;45010;53.640;10.578;2023-02-01T05:13:32;100082.81;;;24.26;32.92
59240;BME280;45010;53.640;10.578;2023-02-01T05:16:48;100079.59;;;24.24;32.81
59240;BME280;45010;53.640;10.578;2023-02-01T05:19:48;100086.53;;;24.25;32.64
59240;BME280;45010;53.640;10.578;2023-02-01T05:22:48;100087.34;;;24.26;32.86
59240;BME280;45010;53.640;10.578;2023-02-01T05:25:49;100082.00;;;24.26;32.95
59240;BME280;45010;53.640;10.578;2023-02-01T05:28:49;100074.00;;;24.26;32.87
59240;BME280;45010;53.640;10.578;2023-02-01T05:31:49;100069.72;;;24.25;32.77
59240;BME280;45010;53.640;10.578;2023-02-01T05:34:50;100070.56;;;24.25;33.18
59240;BME280;45010;53.640;10.578;2023-02-01T05:37:50;100067.31;;;24.23;32.84
59240;BME280;45010;53.640;10.578;2023-02-01T05:40:50;100044.88;;;24.19;33.05
59240;BME280;45010;53.640;10.578;2023-02-01T05:43:51;100053.75;;;24.25;32.86
59240;BME280;45010;53.640;10.578;2023-02-01T05:46:51;100048.41;;;24.25;33.07
59240;BME280;45010;53.640;10.578;2023-02-01T05:49:52;100049.25;;;24.25;32.77
59240;BME280;45010;53.640;10.578;2023-02-01T05:52:52;100046.00;;;24.23;32.82
59240;BME280;45010;53.640;10.578;2023-02-01T05:55:53;100050.28;;;24.24;33.07
59240;BME280;45010;53.640;10.578;2023-02-01T05:58:53;100051.31;;;24.23;32.98
59240;BME280;45010;53.640;10.578;2023-02-01T06:01:53;100052.13;;;24.24;33.17
59240;BME280;45010;53.640;10.578;2023-02-01T06:04:54;100068.94;;;24.24;33.12
59240;BME280;45010;53.640;10.578;2023-02-01T06:07:54;100081.44;;;24.24;33.09
59240;BME280;45010;53.640;10.578;2023-02-01T06:11:03;100080.59;;;24.18;33.19
59240;BME280;45010;53.640;10.578;2023-02-01T06:14:03;100100.09;;;24.24;33.15
59240;BME280;45010;53.640;10.578;2023-02-01T06:17:04;100094.44;;;24.20;32.90
59240;BME280;45010;53.640;10.578;2023-02-01T06:20:05;100100.91;;;24.24;32.98
59240;BME280;45010;53.640;10.578;2023-02-01T06:23:06;100104.59;;;24.23;33.01
59240;BME280;45010;53.640;10.578;2023-02-01T06:26:07;100069.25;;;24.11;32.96
59240;BME280;45010;53.640;10.578;2023-02-01T06:29:10;100096.63;;;24.23;32.87
59240;BME280;45010;53.640;10.578;2023-02-01T06:32:10;100084.94;;;24.24;33.09
59240;BME280;45010;53.640;10.578;2023-02-01T06:35:11;100087.50;;;24.19;32.91
59240;BME280;45010;53.640;10.578;2023-02-01T06:38:15;100101.72;;;24.25;33.00
59240;BME280;45010;53.640;10.578;2023-02-01T06:41:16;100059.44;;;24.11;33.01
59240;BME280;45010;53.640;10.578;2023-02-01T06:44:16;100079.59;;;24.24;32.78
59240;BME280;45010;53.640;10.578;2023-02-01T06:47:17;100091.28;;;24.23;32.94
59240;BME280;45010;53.640;10.578;2023-02-01T06:50:17;100079.59;;;24.24;32.68
59240;BME280;45010;53.640;10.578;2023-02-01T06:53:17;100081.22;;;24.25;32.68
59240;BME280;45010;53.640;10.578;2023-02-01T06:56:18;100056.44;;;24.08;32.98
59240;BME280;45010;53.640;10.578;2023-02-01T06:59:19;100051.66;;;24.10;32.75
59240;BME280;45010;53.640;10.578;2023-02-01T07:02:19;100086.53;;;24.25;32.91
59240;BME280;45010;53.640;10.578;2023-02-01T07:05:19;100076.94;;;24.24;33.07
59240;BME280;45010;53.640;10.578;2023-02-01T07:08:20;100074.28;;;24.24;32.88
59240;BME280;45010;53.640;10.578;2023-02-01T07:11:21;100078.53;;;24.25;33.03
59240;BME280;45010;53.640;10.578;2023-02-01T07:14:22;100068.47;;;24.10;32.96
59240;BME280;45010;53.640;10.578;2023-02-01T07:17:22;100062.31;;;24.10;33.04
59240;BME280;45010;53.640;10.578;2023-02-01T07:20:23;100083.88;;;24.25;33.01
59240;BME280;45010;53.640;10.578;2023-02-01T07:23:24;100067.81;;;24.20;33.03
59240;BME280;45010;53.640;10.578;2023-02-01T07:26:24;100081.22;;;24.25;32.98
59240;BME280;45010;53.640;10.578;2023-02-01T07:29:24;100081.22;;;24.25;32.91
59240;BME280;45010;53.640;10.578;2023-02-01T07:32:25;100076.94;;;24.24;32.95
59240;BME280;45010;53.640;10.578;2023-02-01T07:35:25;100079.59;;;24.24;33.03
59240;BME280;45010;53.640;10.578;2023-02-01T07:38:26;100100.91;;;24.24;33.07
59240;BME280;45010;53.640;10.578;2023-02-01T07:41:28;100069.66;;;24.20;32.54
59240;BME280;45010;53.640;10.578;2023-02-01T07:44:28;100080.41;;;24.25;33.04
59240;BME280;45010;53.640;10.578;2023-02-01T07:47:28;100056.03;;;24.16;32.94
59240;BME280;45010;53.640;10.578;2023-02-01T07:50:29;100056.53;;;24.13;32.78
59240;BME280;45010;53.640;10.578;2023-02-01T07:53:31;100071.34;;;24.26;33.09
59240;BME280;45010;53.640;10.578;2023-02-01T07:56:32;100068.94;;;24.24;32.98
59240;BME280;45010;53.640;10.578;2023-02-01T07:59:32;100068.94;;;24.24;33.05
59240;BME280;45010;53.640;10.578;2023-02-01T08:02:32;100074.28;;;24.24;32.87
59240;BME280;45010;53.640;10.578;2023-02-01T08:05:33;100076.94;;;24.24;32.91
59240;BME280;45010;53.640;10.578;2023-02-01T08:08:33;100067.31;;;24.23;33.06
59240;BME280;45010;53.640;10.578;2023-02-01T08:11:34;100068.13;;;24.24;32.95
59240;BME280;45010;53.640;10.578;2023-02-01T08:14:36;100068.13;;;24.24;32.98
59240;BME280;45010;53.640;10.578;2023-02-01T08:17:36;100077.97;;;24.23;32.89
59240;BME280;45010;53.640;10.578;2023-02-01T08:20:37;100078.78;;;24.24;32.99
59240;BME280;45010;53.640;10.578;2023-02-01T08:23:42;100071.84;;;24.23;32.92
59240;BME280;45010;53.640;10.578;2023-02-01T08:26:42;100077.19;;;24.23;32.89
59240;BME280;45010;53.640;10.578;2023-02-01T08:29:43;100077.19;;;24.23;33.04
59240;BME280;45010;53.640;10.578;2023-02-01T08:32:43;100083.28;;;24.23;32.75
59240;BME280;45010;53.640;10.578;2023-02-01T08:35:43;100082.50;;;24.23;32.85
59240;BME280;45010;53.640;10.578;2023-02-01T08:38:44;100062.81;;;24.07;33.04
59240;BME280;45010;53.640;10.578;2023-02-01T08:41:44;100088.06;;;24.21;33.00
59240;BME280;45010;53.640;10.578;2023-02-01T08:45:05;100092.34;;;24.22;32.78
59240;BME280;45010;53.640;10.578;2023-02-01T08:48:05;100087.00;;;24.22;32.68
59240;BME280;45010;53.640;10.578;2023-02-01T08:51:09;100087.00;;;24.22;32.96
59240;BME280;45010;53.640;10.578;2023-02-01T08:54:10;100091.56;;;24.22;32.77
59240;BME280;45010;53.640;10.578;2023-02-01T08:57:10;100085.41;;;24.21;32.90
59240;BME280;45010;53.640;10.578;2023-02-01T09:00:13;100089.13;;;24.20;32.84
59240;BME280;45010;53.640;10.578;2023-02-01T09:03:15;100097.13;;;24.20;32.92
59240;BME280;45010;53.640;10.578;2023-02-01T09:06:15;100105.13;;;24.20;32.90
59240;BME280;45010;53.640;10.578;2023-02-01T09:09:16;100130.94;;;24.20;32.90
59240;BME280;45010;53.640;10.578;2023-02-01T09:12:16;100085.91;;;24.18;32.98
59240;BME280;45010;53.640;10.578;2023-02-01T09:15:17;100077.53;;;24.09;32.96
59240;BME280;45010;53.640;10.578;2023-02-01T09:18:17;100080.59;;;24.18;33.37
59240;BME280;45010;53.640;10.578;2023-02-01T09:21:17;100093.91;;;24.18;33.58
59240;BME280;45010;53.640;10.578;2023-02-01T09:24:18;100100.84;;;24.19;33.73
59240;BME280;45010;53.640;10.578;2023-02-01T09:27:18;100090.72;;;24.04;33.61
59240;BME280;45010;53.640;10.578;2023-02-01T09:30:19;100107.28;;;24.23;33.66
59240;BME280;45010;53.640;10.578;2023-02-01T09:33:19;100094.53;;;24.25;33.56
59240;BME280;45010;53.640;10.578;2023-02-01T09:36:21;100080.06;;;24.21;33.72
59240;BME280;45010;53.640;10.578;2023-02-01T09:39:23;100091.38;;;24.28;33.50
59240;BME280;45010;53.640;10.578;2023-02-01T09:42:46;100107.94;;;24.30;33.77
59240;BME280;45010;53.640;10.578;2023-02-01T09:49:26;100096.69;;;24.28;33.49
59240;BME280;45010;53.640;10.578;2023-02-01T09:52:34;100094.63;;;24.30;33.69
59240;BME280;45010;53.640;10.578;2023-02-01T09:55:47;100093.78;;;24.30;33.34
59240;BME280;45010;53.640;10.578;2023-02-01T09:58:54;100094.63;;;24.30;33.46
59240;BME280;45010;53.640;10.578;2023-02-01T10:01:55;100094.41;;;24.37;33.55
59240;BME280;45010;53.640;10.578;2023-02-01T10:04:58;100087.78;;;24.40;33.58
59240;BME280;45010;53.640;10.578;2023-02-01T10:08:09;100074.22;;;24.41;33.55
59240;BME280;45010;53.640;10.578;2023-02-01T10:11:19;100085.72;;;24.42;33.50
59240;BME280;45010;53.640;10.578;2023-02-01T10:14:30;100095.31;;;24.43;33.42
59240;BME280;45010;53.640;10.578;2023-02-01T10:24:17;100086.56;;;24.48;33.55
59240;BME280;45010;53.640;10.578;2023-02-01T10:27:28;100092.72;;;24.48;33.60
59240;BME280;45010;53.640;10.578;2023-02-01T10:30:48;100070.28;;;24.44;33.62
59240;BME280;45010;53.640;10.578;2023-02-01T10:33:51;100060.16;;;24.46;33.50
59240;BME280;45010;53.640;10.578;2023-02-01T10:36:57;100041.13;;;24.37;33.52
59240;BME280;45010;53.640;10.578;2023-02-01T10:40:16;100066.69;;;24.55;33.50
59240;BME280;45010;53.640;10.578;2023-02-01T10:43:16;100067.25;;;24.57;33.29
59240;BME280;45010;53.640;10.578;2023-02-01T10:46:17;100057.41;;;24.58;33.30
59240;BME280;45010;53.640;10.578;2023-02-01T10:49:22;100061.44;;;24.61;33.41
59240;BME280;45010;53.640;10.578;2023-02-01T10:52:33;100056.09;;;24.61;33.35
59240;BME280;45010;53.640;10.578;2023-02-01T10:55:51;100063.03;;;24.62;33.29
59240;BME280;45010;53.640;10.578;2023-02-01T10:59:00;100050.25;;;24.64;33.28
59240;BME280;45010;53.640;10.578;2023-02-01T11:02:13;100012.50;;;24.50;33.32
59240;BME280;45010;53.640;10.578;2023-02-01T11:05:16;100014.44;;;24.54;33.43
59240;BME280;45010;53.640;10.578;2023-02-01T11:08:19;100030.53;;;24.65;33.33
59240;BME280;45010;53.640;10.578;2023-02-01T11:11:20;100021.50;;;24.66;33.24
59240;BME280;45010;53.640;10.578;2023-02-01T11:17:28;100022.81;;;24.63;33.12
59240;BME280;45010;53.640;10.578;2023-02-01T11:20:35;100019.94;;;24.70;33.25
59240;BME280;45010;53.640;10.578;2023-02-01T11:23:45;100005.28;;;24.72;33.33
59240;BME280;45010;53.640;10.578;2023-02-01T11:26:45;99996.22;;;24.74;33.21
59240;BME280;45010;53.640;10.578;2023-02-01T11:29:50;99999.47;;;24.76;33.23
59240;BME280;45010;53.640;10.578;2023-02-01T11:32:51;99988.53;;;24.77;33.29
59240;BME280;45010;53.640;10.578;2023-02-01T11:35:51;99977.84;;;24.72;33.22
59240;BME280;45010;53.640;10.578;2023-02-01T11:42:16;99976.50;;;24.75;33.22
59240;BME280;45010;53.640;10.578;2023-02-01T11:45:31;99966.66;;;24.75;33.14
59240;BME280;45010;53.640;10.578;2023-02-01T11:48:33;99985.84;;;24.72;33.58
59240;BME280;45010;53.640;10.578;2023-02-01T11:58:26;99959.34;;;24.88;33.01
59240;BME280;45010;53.640;10.578;2023-02-01T12:14:59;99935.88;;;24.90;33.18
59240;BME280;45010;53.640;10.578;2023-02-01T12:25:13;99931.06;;;24.87;33.04
59240;BME280;45010;53.640;10.578;2023-02-01T12:28:45;99936.47;;;24.92;33.13
59240;BME280;45010;53.640;10.578;2023-02-01T12:32:11;99925.78;;;24.92;33.13
59240;BME280;45010;53.640;10.578;2023-02-01T12:35:49;99929.25;;;24.92;33.04
59240;BME280;45010;53.640;10.578;2023-02-01T12:39:31;99926.56;;;24.92;32.78
59240;BME280;45010;53.640;10.578;2023-02-01T12:42:42;99915.06;;;24.87;32.85
59240;BME280;45010;53.640;10.578;2023-02-01T12:45:49;99917.78;;;24.92;32.63
59240;BME280;45010;53.640;10.578;2023-02-01T12:49:14;99919.38;;;24.93;32.87
59240;BME280;45010;53.640;10.578;2023-02-01T12:52:21;99918.56;;;24.92;32.79
59240;BME280;45010;53.640;10.578;2023-02-01T12:55:36;99924.72;;;24.93;32.78
59240;BME280;45010;53.640;10.578;2023-02-01T12:58:45;99940.72;;;24.93;32.71
59240;BME280;45010;53.640;10.578;2023-02-01T13:01:56;99952.47;;;24.92;32.67
59240;BME280;45010;53.640;10.578;2023-02-01T13:05:16;99956.72;;;24.93;32.69
59240;BME280;45010;53.640;10.578;2023-02-01T13:08:22;99940.69;;;24.88;32.63
59240;BME280;45010;53.640;10.578;2023-02-01T13:11:28;99944.47;;;24.92;32.82
59240;BME280;45010;53.640;10.578;2023-02-01T13:17:33;99937.22;;;24.87;32.81
59240;BME280;45010;53.640;10.578;2023-02-01T13:20:46;99955.13;;;24.92;32.74
59240;BME280;45010;53.640;10.578;2023-02-01T13:23:48;99971.13;;;24.92;32.93
59240;BME280;45010;53.640;10.578;2023-02-01T13:26:49;99978.06;;;24.93;32.95
59240;BME280;45010;53.640;10.578;2023-02-01T13:30:01;99964.69;;;24.88;32.98
59240;BME280;45010;53.640;10.578;2023-02-01T13:33:17;99978.06;;;24.93;32.96
59240;BME280;45010;53.640;10.578;2023-02-01T13:36:45;99971.13;;;24.92;32.81
59240;BME280;45010;53.640;10.578;2023-02-01T13:43:18;99954.53;;;24.84;32.78
59240;BME280;45010;53.640;10.578;2023-02-01T13:46:21;99973.22;;;24.90;32.82
59240;BME280;45010;53.640;10.578;2023-02-01T13:49:25;99961.53;;;24.91;32.77
59240;BME280;45010;53.640;10.578;2023-02-01T13:52:31;99966.84;;;24.91;32.80
59240;BME280;45010;53.640;10.578;2023-02-01T13:55:40;99957.22;;;24.90;32.83
59240;BME280;45010;53.640;10.578;2023-02-01T13:58:42;99952.91;;;24.83;32.68
59240;BME280;45010;53.640;10.578;2023-02-01T14:01:43;99960.94;;;24.89;32.84
59240;BME280;45010;53.640;10.578;2023-02-01T14:04:48;99963.56;;;24.83;32.72
59240;BME280;45010;53.640;10.578;2023-02-01T14:08:10;99984.09;;;24.83;32.85
59240;BME280;45010;53.640;10.578;2023-02-01T14:17:36;99959.03;;;24.84;32.83
59240;BME280;45010;53.640;10.578;2023-02-01T14:20:45;99962.56;;;24.90;33.01
59240;BME280;45010;53.640;10.578;2023-02-01T14:24:00;99956.44;;;24.89;32.90
59240;BME280;45010;53.640;10.578;2023-02-01T14:27:14;99958.22;;;24.83;32.83
59240;BME280;45010;53.640;10.578;2023-02-01T14:30:19;99966.28;;;24.89;32.76
59240;BME280;45010;53.640;10.578;2023-02-01T14:33:24;99962.53;;;24.84;32.65
59240;BME280;45010;53.640;10.578;2023-02-01T14:36:39;99963.06;;;24.87;32.91
59240;BME280;45010;53.640;10.578;2023-02-01T14:39:52;99971.91;;;24.87;32.87
59240;BME280;45010;53.640;10.578;2023-02-01T14:42:54;99955.84;;;24.82;32.76
59240;BME280;45010;53.640;10.578;2023-02-01T14:45:55;99979.91;;;24.87;32.90
59240;BME280;45010;53.640;10.578;2023-02-01T14:48:56;100002.03;;;24.88;32.80
59240;BME280;45010;53.640;10.578;2023-02-01T14:51:56;100005.75;;;24.87;32.72
59240;BME280;45010;53.640;10.578;2023-02-01T14:55:02;100003.56;;;24.83;32.92
59240;BME280;45010;53.640;10.578;2023-02-01T15:01:28;99996.69;;;24.88;32.96
59240;BME280;45010;53.640;10.578;2023-02-01T15:04:41;100007.34;;;24.88;32.96
59240;BME280;45010;53.640;10.578;2023-02-01T15:07:42;100005.75;;;24.87;32.92
59240;BME280;45010;53.640;10.578;2023-02-01T15:10:46;99983.56;;;24.81;32.87
59240;BME280;45010;53.640;10.578;2023-02-01T15:13:49;99991.56;;;24.81;32.53
59240;BME280;45010;53.640;10.578;2023-02-01T15:16:50;99988.13;;;24.85;32.84
59240;BME280;45010;53.640;10.578;2023-02-01T15:23:16;99989.13;;;24.79;32.70
59240;BME280;45010;53.640;10.578;2023-02-01T15:26:27;99997.19;;;24.84;32.62
59240;BME280;45010;53.640;10.578;2023-02-01T15:29:28;99983.28;;;24.82;32.56
59240;BME280;45010;53.640;10.578;2023-02-01T15:32:35;99992.34;;;24.81;32.62
59240;BME280;45010;53.640;10.578;2023-02-01T15:35:44;99993.88;;;24.77;32.82
59240;BME280;45010;53.640;10.578;2023-02-01T15:38:45;100001.38;;;24.80;32.86
59240;BME280;45010;53.640;10.578;2023-02-01T15:41:48;99992.84;;;24.78;32.87
59240;BME280;45010;53.640;10.578;2023-02-01T15:44:49;100005.91;;;24.80;32.64
59240;BME280;45010;53.640;10.578;2023-02-01T15:47:51;100014.72;;;24.80;32.80
59240;BME280;45010;53.640;10.578;2023-02-01T15:50:53;100022.72;;;24.80;32.84
59240;BME280;45010;53.640;10.578;2023-02-01T15:54:02;100028.06;;;24.80;32.75
59240;BME280;45010;53.640;10.578;2023-02-01T15:57:04;100050.44;;;24.79;32.71
59240;BME280;45010;53.640;10.578;2023-02-01T16:00:07;100038.66;;;24.75;32.96
59240;BME280;45010;53.640;10.578;2023-02-01T16:03:34;100039.72;;;24.74;32.93
59240;BME280;45010;53.640;10.578;2023-02-01T16:06:48;100042.63;;;24.72;32.75
59240;BME280;45010;53.640;10.578;2023-02-01T16:09:53;100054.97;;;24.79;32.88
59240;BME280;45010;53.640;10.578;2023-02-01T16:12:54;100053.13;;;24.79;33.07
59240;BME280;45010;53.640;10.578;2023-02-01T16:15:58;100052.06;;;24.80;32.79
59240;BME280;45010;53.640;10.578;2023-02-01T16:18:59;100048.56;;;24.80;32.74
59240;BME280;45010;53.640;10.578;2023-02-01T16:21:59;100047.78;;;24.79;32.92
59240;BME280;45010;53.640;10.578;2023-02-01T16:24:59;100050.44;;;24.79;32.80
59240;BME280;45010;53.640;10.578;2023-02-01T16:28:02;100044.91;;;24.81;32.87
59240;BME280;45010;53.640;10.578;2023-02-01T16:31:02;100052.06;;;24.80;32.67
59240;BME280;45010;53.640;10.578;2023-02-01T16:34:03;100051.03;;;24.81;32.81
59240;BME280;45010;53.640;10.578;2023-02-01T16:37:05;100051.03;;;24.81;32.66
59240;BME280;45010;53.640;10.578;2023-02-01T16:40:06;100051.84;;;24.82;32.75
59240;BME280;45010;53.640;10.578;2023-02-01T16:43:20;100048.84;;;24.78;32.67
59240;BME280;45010;53.640;10.578;2023-02-01T16:46:23;100045.34;;;24.78;32.85
59240;BME280;45010;53.640;10.578;2023-02-01T16:49:25;100057.97;;;24.82;32.78
59240;BME280;45010;53.640;10.578;2023-02-01T16:52:26;100040.03;;;24.78;32.83
59240;BME280;45010;53.640;10.578;2023-02-01T16:55:26;100043.56;;;24.83;32.84
59240;BME280;45010;53.640;10.578;2023-02-01T16:58:27;100059.56;;;24.83;32.78
59240;BME280;45010;53.640;10.578;2023-02-01T17:01:28;100056.91;;;24.83;32.82
59240;BME280;45010;53.640;10.578;2023-02-01T17:04:28;100059.56;;;24.83;32.98
59240;BME280;45010;53.640;10.578;2023-02-01T17:07:29;100063.88;;;24.84;32.92
59240;BME280;45010;53.640;10.578;2023-02-01T17:10:30;100056.66;;;24.85;33.05
59240;BME280;45010;53.640;10.578;2023-02-01T17:13:31;100075.34;;;24.85;33.00
59240;BME280;45010;53.640;10.578;2023-02-01T17:16:31;100075.34;;;24.85;33.04